sensor_id;sensor_type;location;lat;lon;timestamp;P1;durP1;ratioP1;P2;durP2;ratioP2
6979;SDS011;3530;52.832;10.680;2023-09-08T00:01:17;5.18;;;4.65;;
6979;SDS011;3530;52.832;10.680;2023-09-08T00:04:03;6.72;;;4.93;;
6979;SDS011;3530;52.832;10.680;2023-09-08T00:06:49;6.55;;;5.95;;
6979;SDS011;3530;52.832;10.680;2023-09-08T00:09:35;5.20;;;4.57;;
6979;SDS011;3530;52.832;10.680;2023-09-08T00:12:20;4.63;;;4.22;;
6979;SDS011;3530;52.832;10.680;2023-09-08T00:15:06;5.20;;;4.70;;
6979;SDS011;3530;52.832;10.680;2023-09-08T00:17:52;6.35;;;4.97;;
6979;SDS011;3530;52.832;10.680;2023-09-08T00:20:38;5.20;;;4.70;;
6979;SDS011;3530;52.832;10.680;2023-09-08T00:23:23;6.72;;;5.15;;
6979;SDS011;3530;52.832;10.680;2023-09-08T00:26:09;4.95;;;4.55;;
6979;SDS011;3530;52.832;10.680;2023-09-08T00:28:55;5.65;;;5.15;;
6979;SDS011;3530;52.832;10.680;2023-09-08T00:31:41;6.07;;;5.47;;
6979;SDS011;3530;52.832;10.680;2023-09-08T00:34:27;5.72;;;5.22;;
6979;SDS011;3530;52.832;10.680;2023-09-08T00:37:12;6.10;;;5.45;;
6979;SDS011;3530;52.832;10.680;2023-09-08T00:39:58;7.00;;;5.30;;
6979;SDS011;3530;52.832;10.680;2023-09-08T00:42:44;5.90;;;4.65;;
6979;SDS011;3530;52.832;10.680;2023-09-08T00:45:29;5.80;;;4.57;;
6979;SDS011;3530;52.832;10.680;2023-09-08T00:48:15;8.35;;;5.00;;
6979;SDS011;3530;52.832;10.680;2023-09-08T00:51:01;5.47;;;4.75;;
6979;SDS011;3530;52.832;10.680;2023-09-08T00:53:47;6.55;;;4.82;;
6979;SDS011;3530;52.832;10.680;2023-09-08T00:56:35;5.35;;;4.95;;
6979;SDS011;3530;52.832;10.680;2023-09-08T00:59:22;5.03;;;4.60;;
6979;SDS011;3530;52.832;10.680;2023-09-08T01:02:08;5.20;;;4.70;;
6979;SDS011;3530;52.832;10.680;2023-09-08T01:04:54;6.35;;;4.82;;
6979;SDS011;3530;52.832;10.680;2023-09-08T01:07:40;6.03;;;5.15;;
6979;SDS011;3530;52.832;10.680;2023-09-08T01:10:26;5.28;;;4.78;;
6979;SDS011;3530;52.832;10.680;2023-09-08T01:13:12;7.20;;;4.75;;
6979;SDS011;3530;52.832;10.680;2023-09-08T01:15:57;5.05;;;4.55;;
6979;SDS011;3530;52.832;10.680;2023-09-08T01:18:43;5.63;;;5.13;;
6979;SDS011;3530;52.832;10.680;2023-09-08T01:21:50;5.57;;;4.78;;
6979;SDS011;3530;52.832;10.680;2023-09-08T01:27:49;5.32;;;4.63;;
6979;SDS011;3530;52.832;10.680;2023-09-08T01:30:36;8.18;;;5.43;;
6979;SDS011;3530;52.832;10.680;2023-09-08T01:33:22;6.18;;;5.57;;
6979;SDS011;3530;52.832;10.680;2023-09-08T01:36:08;6.82;;;5.68;;
6979;SDS011;3530;52.832;10.680;2023-09-08T01:38:54;7.40;;;5.32;;
6979;SDS011;3530;52.832;10.680;2023-09-08T01:41:40;7.05;;;4.78;;
6979;SDS011;3530;52.832;10.680;2023-09-08T01:44:25;6.47;;;5.57;;
6979;SDS011;3530;52.832;10.680;2023-09-08T01:47:11;9.95;;;5.43;;
6979;SDS011;3530;52.832;10.680;2023-09-08T01:49:57;7.80;;;5.95;;
6979;SDS011;3530;52.832;10.680;2023-09-08T01:52:42;5.78;;;5.03;;
6979;SDS011;3530;52.832;10.680;2023-09-08T01:55:28;8.95;;;5.55;;
6979;SDS011;3530;52.832;10.680;2023-09-08T01:58:14;6.50;;;5.90;;
6979;SDS011;3530;52.832;10.680;2023-09-08T02:00:59;10.13;;;4.63;;
6979;SDS011;3530;52.832;10.680;2023-09-08T02:03:50;5.05;;;4.55;;
6979;SDS011;3530;52.832;10.680;2023-09-08T02:06:36;6.88;;;5.53;;
6979;SDS011;3530;52.832;10.680;2023-09-08T02:09:22;5.57;;;5.00;;
6979;SDS011;3530;52.832;10.680;2023-09-08T02:12:07;4.78;;;4.38;;
6979;SDS011;3530;52.832;10.680;2023-09-08T02:14:53;7.65;;;6.35;;
6979;SDS011;3530;52.832;10.680;2023-09-08T02:17:39;5.57;;;5.03;;
6979;SDS011;3530;52.832;10.680;2023-09-08T02:20:24;5.55;;;5.05;;
6979;SDS011;3530;52.832;10.680;2023-09-08T02:23:10;8.30;;;5.03;;
6979;SDS011;3530;52.832;10.680;2023-09-08T02:25:55;5.82;;;5.03;;
6979;SDS011;3530;52.832;10.680;2023-09-08T02:28:41;5.22;;;4.82;;
6979;SDS011;3530;52.832;10.680;2023-09-08T02:31:27;7.00;;;5.55;;
6979;SDS011;3530;52.832;10.680;2023-09-08T02:34:13;9.18;;;5.82;;
6979;SDS011;3530;52.832;10.680;2023-09-08T02:36:59;5.72;;;5.13;;
6979;SDS011;3530;52.832;10.680;2023-09-08T02:39:44;5.70;;;5.10;;
6979;SDS011;3530;52.832;10.680;2023-09-08T02:42:30;5.65;;;5.15;;
6979;SDS011;3530;52.832;10.680;2023-09-08T02:45:16;5.95;;;5.35;;
6979;SDS011;3530;52.832;10.680;2023-09-08T02:48:02;5.55;;;4.97;;
6979;SDS011;3530;52.832;10.680;2023-09-08T02:50:47;5.55;;;5.05;;
6979;SDS011;3530;52.832;10.680;2023-09-08T02:53:33;6.32;;;5.07;;
6979;SDS011;3530;52.832;10.680;2023-09-08T02:56:19;5.63;;;5.13;;
6979;SDS011;3530;52.832;10.680;2023-09-08T02:59:04;5.90;;;4.97;;
6979;SDS011;3530;52.832;10.680;2023-09-08T03:01:50;6.18;;;5.57;;
6979;SDS011;3530;52.832;10.680;2023-09-08T03:04:36;5.55;;;5.05;;
6979;SDS011;3530;52.832;10.680;2023-09-08T03:07:21;5.90;;;5.38;;
6979;SDS011;3530;52.832;10.680;2023-09-08T03:10:07;8.40;;;5.70;;
6979;SDS011;3530;52.832;10.680;2023-09-08T03:12:53;8.05;;;5.70;;
6979;SDS011;3530;52.832;10.680;2023-09-08T03:15:38;6.88;;;5.25;;
6979;SDS011;3530;52.832;10.680;2023-09-08T03:18:24;6.95;;;6.20;;
6979;SDS011;3530;52.832;10.680;2023-09-08T03:21:10;6.28;;;5.70;;
6979;SDS011;3530;52.832;10.680;2023-09-08T03:23:59;5.70;;;5.20;;
6979;SDS011;3530;52.832;10.680;2023-09-08T03:26:44;6.55;;;5.95;;
6979;SDS011;3530;52.832;10.680;2023-09-08T03:29:30;6.18;;;5.57;;
6979;SDS011;3530;52.832;10.680;2023-09-08T03:32:16;6.72;;;5.70;;
6979;SDS011;3530;52.832;10.680;2023-09-08T03:35:01;8.20;;;5.68;;
6979;SDS011;3530;52.832;10.680;2023-09-08T03:37:49;6.38;;;5.78;;
6979;SDS011;3530;52.832;10.680;2023-09-08T03:40:34;7.72;;;6.00;;
6979;SDS011;3530;52.832;10.680;2023-09-08T03:43:20;5.95;;;5.35;;
6979;SDS011;3530;52.832;10.680;2023-09-08T03:46:06;5.88;;;5.30;;
6979;SDS011;3530;52.832;10.680;2023-09-08T03:48:51;8.25;;;5.88;;
6979;SDS011;3530;52.832;10.680;2023-09-08T03:51:39;5.15;;;4.75;;
6979;SDS011;3530;52.832;10.680;2023-09-08T03:54:25;7.55;;;5.70;;
6979;SDS011;3530;52.832;10.680;2023-09-08T03:57:11;6.65;;;5.93;;
6979;SDS011;3530;52.832;10.680;2023-09-08T03:59:56;6.97;;;6.22;;
6979;SDS011;3530;52.832;10.680;2023-09-08T04:02:42;6.22;;;5.65;;
6979;SDS011;3530;52.832;10.680;2023-09-08T04:05:27;5.65;;;5.15;;
6979;SDS011;3530;52.832;10.680;2023-09-08T04:08:13;6.32;;;5.70;;
6979;SDS011;3530;52.832;10.680;2023-09-08T04:10:59;7.60;;;5.70;;
6979;SDS011;3530;52.832;10.680;2023-09-08T04:13:44;8.43;;;5.97;;
6979;SDS011;3530;52.832;10.680;2023-09-08T04:16:30;6.80;;;6.10;;
6979;SDS011;3530;52.832;10.680;2023-09-08T04:19:16;6.15;;;5.60;;
6979;SDS011;3530;52.832;10.680;2023-09-08T04:22:01;6.82;;;6.00;;
6979;SDS011;3530;52.832;10.680;2023-09-08T04:24:47;6.93;;;5.78;;
6979;SDS011;3530;52.832;10.680;2023-09-08T04:27:33;6.88;;;6.18;;
6979;SDS011;3530;52.832;10.680;2023-09-08T04:30:18;10.95;;;6.25;;
6979;SDS011;3530;52.832;10.680;2023-09-08T04:33:04;7.20;;;6.50;;
6979;SDS011;3530;52.832;10.680;2023-09-08T04:35:50;9.88;;;7.43;;
6979;SDS011;3530;52.832;10.680;2023-09-08T04:38:35;6.47;;;5.95;;
6979;SDS011;3530;52.832;10.680;2023-09-08T04:41:21;6.47;;;5.82;;
6979;SDS011;3530;52.832;10.680;2023-09-08T04:44:06;6.95;;;6.25;;
6979;SDS011;3530;52.832;10.680;2023-09-08T04:46:52;11.05;;;6.55;;
6979;SDS011;3530;52.832;10.680;2023-09-08T04:49:38;7.25;;;6.55;;
6979;SDS011;3530;52.832;10.680;2023-09-08T04:52:24;7.45;;;6.75;;
6979;SDS011;3530;52.832;10.680;2023-09-08T04:55:11;8.40;;;6.47;;
6979;SDS011;3530;52.832;10.680;2023-09-08T04:57:56;7.60;;;6.75;;
6979;SDS011;3530;52.832;10.680;2023-09-08T05:00:42;7.68;;;6.75;;
6979;SDS011;3530;52.832;10.680;2023-09-08T05:03:27;9.13;;;6.70;;
6979;SDS011;3530;52.832;10.680;2023-09-08T05:06:13;8.65;;;7.38;;
6979;SDS011;3530;52.832;10.680;2023-09-08T05:08:59;8.32;;;6.72;;
6979;SDS011;3530;52.832;10.680;2023-09-08T05:11:45;10.73;;;7.07;;
6979;SDS011;3530;52.832;10.680;2023-09-08T05:14:30;8.15;;;7.35;;
6979;SDS011;3530;52.832;10.680;2023-09-08T05:17:16;8.65;;;7.63;;
6979;SDS011;3530;52.832;10.680;2023-09-08T05:20:02;8.85;;;7.10;;
6979;SDS011;3530;52.832;10.680;2023-09-08T05:22:48;9.77;;;6.80;;
6979;SDS011;3530;52.832;10.680;2023-09-08T05:25:34;9.43;;;7.47;;
6979;SDS011;3530;52.832;10.680;2023-09-08T05:28:19;8.75;;;7.13;;
6979;SDS011;3530;52.832;10.680;2023-09-08T05:31:05;8.38;;;6.70;;
6979;SDS011;3530;52.832;10.680;2023-09-08T05:33:51;10.32;;;8.10;;
6979;SDS011;3530;52.832;10.680;2023-09-08T05:36:36;8.00;;;7.05;;
6979;SDS011;3530;52.832;10.680;2023-09-08T05:39:23;9.30;;;7.30;;
6979;SDS011;3530;52.832;10.680;2023-09-08T05:42:09;8.27;;;7.38;;
6979;SDS011;3530;52.832;10.680;2023-09-08T05:44:54;8.20;;;7.25;;
6979;SDS011;3530;52.832;10.680;2023-09-08T05:47:40;8.40;;;7.50;;
6979;SDS011;3530;52.832;10.680;2023-09-08T05:50:26;8.70;;;7.22;;
6979;SDS011;3530;52.832;10.680;2023-09-08T05:53:11;7.90;;;7.10;;
6979;SDS011;3530;52.832;10.680;2023-09-08T05:55:57;9.68;;;7.25;;
6979;SDS011;3530;52.832;10.680;2023-09-08T05:58:43;9.18;;;7.60;;
6979;SDS011;3530;52.832;10.680;2023-09-08T06:01:29;9.45;;;7.15;;
6979;SDS011;3530;52.832;10.680;2023-09-08T06:04:15;8.50;;;7.45;;
6979;SDS011;3530;52.832;10.680;2023-09-08T06:07:01;8.88;;;7.30;;
6979;SDS011;3530;52.832;10.680;2023-09-08T06:09:46;7.57;;;6.40;;
6979;SDS011;3530;52.832;10.680;2023-09-08T06:12:32;7.60;;;6.80;;
6979;SDS011;3530;52.832;10.680;2023-09-08T06:15:18;8.35;;;7.55;;
6979;SDS011;3530;52.832;10.680;2023-09-08T06:18:03;8.77;;;7.15;;
6979;SDS011;3530;52.832;10.680;2023-09-08T06:20:49;8.13;;;7.38;;
6979;SDS011;3530;52.832;10.680;2023-09-08T06:23:35;7.43;;;6.72;;
6979;SDS011;3530;52.832;10.680;2023-09-08T06:26:21;8.68;;;6.82;;
6979;SDS011;3530;52.832;10.680;2023-09-08T06:29:07;7.93;;;7.13;;
6979;SDS011;3530;52.832;10.680;2023-09-08T06:31:52;9.15;;;7.85;;
6979;SDS011;3530;52.832;10.680;2023-09-08T06:34:38;11.82;;;7.57;;
6979;SDS011;3530;52.832;10.680;2023-09-08T06:37:24;9.10;;;8.20;;
6979;SDS011;3530;52.832;10.680;2023-09-08T06:40:09;8.07;;;7.18;;
6979;SDS011;3530;52.832;10.680;2023-09-08T06:42:55;8.23;;;6.53;;
6979;SDS011;3530;52.832;10.680;2023-09-08T06:45:42;9.18;;;7.47;;
6979;SDS011;3530;52.832;10.680;2023-09-08T06:48:28;8.95;;;6.97;;
6979;SDS011;3530;52.832;10.680;2023-09-08T06:51:14;9.35;;;8.07;;
6979;SDS011;3530;52.832;10.680;2023-09-08T06:54:00;9.25;;;8.35;;
6979;SDS011;3530;52.832;10.680;2023-09-08T06:56:45;11.38;;;7.60;;
6979;SDS011;3530;52.832;10.680;2023-09-08T06:59:31;8.00;;;6.88;;
6979;SDS011;3530;52.832;10.680;2023-09-08T07:02:17;9.13;;;6.35;;
6979;SDS011;3530;52.832;10.680;2023-09-08T07:05:03;10.13;;;7.75;;
6979;SDS011;3530;52.832;10.680;2023-09-08T07:07:53;8.43;;;7.57;;
6979;SDS011;3530;52.832;10.680;2023-09-08T07:10:38;7.32;;;6.63;;
6979;SDS011;3530;52.832;10.680;2023-09-08T07:13:24;8.95;;;7.25;;
6979;SDS011;3530;52.832;10.680;2023-09-08T07:16:10;9.93;;;7.10;;
6979;SDS011;3530;52.832;10.680;2023-09-08T07:18:55;8.50;;;7.45;;
6979;SDS011;3530;52.832;10.680;2023-09-08T07:21:41;9.48;;;7.68;;
6979;SDS011;3530;52.832;10.680;2023-09-08T07:24:27;7.88;;;7.05;;
6979;SDS011;3530;52.832;10.680;2023-09-08T07:27:12;7.35;;;6.65;;
6979;SDS011;3530;52.832;10.680;2023-09-08T07:29:59;7.18;;;6.20;;
6979;SDS011;3530;52.832;10.680;2023-09-08T07:32:45;7.60;;;6.90;;
6979;SDS011;3530;52.832;10.680;2023-09-08T07:35:31;7.55;;;6.75;;
6979;SDS011;3530;52.832;10.680;2023-09-08T07:38:16;7.75;;;6.78;;
6979;SDS011;3530;52.832;10.680;2023-09-08T07:41:02;9.75;;;7.28;;
6979;SDS011;3530;52.832;10.680;2023-09-08T07:43:48;8.00;;;6.90;;
6979;SDS011;3530;52.832;10.680;2023-09-08T07:46:33;7.35;;;6.60;;
6979;SDS011;3530;52.832;10.680;2023-09-08T07:49:19;8.70;;;5.75;;
6979;SDS011;3530;52.832;10.680;2023-09-08T07:52:05;7.65;;;6.90;;
6979;SDS011;3530;52.832;10.680;2023-09-08T07:54:52;6.35;;;5.72;;
6979;SDS011;3530;52.832;10.680;2023-09-08T07:57:38;8.73;;;6.85;;
6979;SDS011;3530;52.832;10.680;2023-09-08T08:00:24;23.08;;;10.10;;
6979;SDS011;3530;52.832;10.680;2023-09-08T08:03:10;11.25;;;7.00;;
6979;SDS011;3530;52.832;10.680;2023-09-08T08:05:56;11.38;;;7.97;;
6979;SDS011;3530;52.832;10.680;2023-09-08T08:08:42;7.00;;;6.20;;
6979;SDS011;3530;52.832;10.680;2023-09-08T08:11:27;8.02;;;6.70;;
6979;SDS011;3530;52.832;10.680;2023-09-08T08:14:13;7.28;;;6.43;;
6979;SDS011;3530;52.832;10.680;2023-09-08T08:16:59;11.40;;;7.30;;
6979;SDS011;3530;52.832;10.680;2023-09-08T08:19:45;11.60;;;7.70;;
6979;SDS011;3530;52.832;10.680;2023-09-08T08:22:30;12.02;;;7.68;;
6979;SDS011;3530;52.832;10.680;2023-09-08T08:25:16;9.30;;;7.72;;
6979;SDS011;3530;52.832;10.680;2023-09-08T08:28:02;7.85;;;6.40;;
6979;SDS011;3530;52.832;10.680;2023-09-08T08:30:48;6.90;;;6.25;;
6979;SDS011;3530;52.832;10.680;2023-09-08T08:33:33;8.32;;;6.68;;
6979;SDS011;3530;52.832;10.680;2023-09-08T08:36:19;10.10;;;6.22;;
6979;SDS011;3530;52.832;10.680;2023-09-08T08:39:05;6.68;;;6.07;;
6979;SDS011;3530;52.832;10.680;2023-09-08T08:41:50;7.40;;;6.38;;
6979;SDS011;3530;52.832;10.680;2023-09-08T08:44:37;9.48;;;6.53;;
6979;SDS011;3530;52.832;10.680;2023-09-08T08:47:24;7.20;;;6.28;;
6979;SDS011;3530;52.832;10.680;2023-09-08T08:50:10;7.55;;;6.53;;
6979;SDS011;3530;52.832;10.680;2023-09-08T08:52:56;7.72;;;6.10;;
6979;SDS011;3530;52.832;10.680;2023-09-08T08:55:42;10.07;;;5.85;;
6979;SDS011;3530;52.832;10.680;2023-09-08T08:58:28;6.55;;;5.75;;
6979;SDS011;3530;52.832;10.680;2023-09-08T09:01:15;7.20;;;6.00;;
6979;SDS011;3530;52.832;10.680;2023-09-08T09:04:01;7.15;;;6.28;;
6979;SDS011;3530;52.832;10.680;2023-09-08T09:06:50;6.80;;;5.82;;
6979;SDS011;3530;52.832;10.680;2023-09-08T09:09:36;6.40;;;5.60;;
6979;SDS011;3530;52.832;10.680;2023-09-08T09:12:22;6.38;;;5.72;;
6979;SDS011;3530;52.832;10.680;2023-09-08T09:15:07;6.50;;;5.90;;
6979;SDS011;3530;52.832;10.680;2023-09-08T09:18:06;7.85;;;5.75;;
6979;SDS011;3530;52.832;10.680;2023-09-08T09:20:53;8.27;;;5.10;;
6979;SDS011;3530;52.832;10.680;2023-09-08T09:23:40;6.15;;;5.65;;
6979;SDS011;3530;52.832;10.680;2023-09-08T09:26:26;9.02;;;6.15;;
6979;SDS011;3530;52.832;10.680;2023-09-08T09:29:14;6.05;;;5.43;;
6979;SDS011;3530;52.832;10.680;2023-09-08T09:32:04;8.50;;;5.75;;
6979;SDS011;3530;52.832;10.680;2023-09-08T09:34:52;6.32;;;5.68;;
6979;SDS011;3530;52.832;10.680;2023-09-08T09:37:41;6.88;;;5.75;;
6979;SDS011;3530;52.832;10.680;2023-09-08T09:40:28;5.78;;;5.28;;
6979;SDS011;3530;52.832;10.680;2023-09-08T09:43:14;8.98;;;5.72;;
6979;SDS011;3530;52.832;10.680;2023-09-08T09:46:00;7.45;;;6.15;;
6979;SDS011;3530;52.832;10.680;2023-09-08T09:48:50;6.65;;;5.32;;
6979;SDS011;3530;52.832;10.680;2023-09-08T09:51:42;7.03;;;5.10;;
6979;SDS011;3530;52.832;10.680;2023-09-08T09:54:28;6.05;;;5.35;;
6979;SDS011;3530;52.832;10.680;2023-09-08T09:57:14;6.00;;;5.40;;
6979;SDS011;3530;52.832;10.680;2023-09-08T10:00:00;5.20;;;4.70;;
6979;SDS011;3530;52.832;10.680;2023-09-08T10:02:51;5.05;;;4.60;;
6979;SDS011;3530;52.832;10.680;2023-09-08T10:05:37;5.80;;;5.25;;
6979;SDS011;3530;52.832;10.680;2023-09-08T10:08:22;5.55;;;5.03;;
6979;SDS011;3530;52.832;10.680;2023-09-08T10:11:08;10.77;;;4.72;;
6979;SDS011;3530;52.832;10.680;2023-09-08T10:13:54;5.88;;;4.90;;
6979;SDS011;3530;52.832;10.680;2023-09-08T10:16:44;5.50;;;5.00;;
6979;SDS011;3530;52.832;10.680;2023-09-08T10:19:34;5.15;;;4.60;;
6979;SDS011;3530;52.832;10.680;2023-09-08T10:22:30;4.93;;;4.43;;
6979;SDS011;3530;52.832;10.680;2023-09-08T10:25:16;5.10;;;4.60;;
6979;SDS011;3530;52.832;10.680;2023-09-08T10:28:03;6.85;;;4.65;;
6979;SDS011;3530;52.832;10.680;2023-09-08T10:30:49;5.72;;;5.15;;
6979;SDS011;3530;52.832;10.680;2023-09-08T10:33:35;9.98;;;4.78;;
6979;SDS011;3530;52.832;10.680;2023-09-08T10:36:22;4.97;;;4.57;;
6979;SDS011;3530;52.832;10.680;2023-09-08T10:39:27;8.98;;;5.50;;
6979;SDS011;3530;52.832;10.680;2023-09-08T10:45:14;5.55;;;4.80;;
6979;SDS011;3530;52.832;10.680;2023-09-08T10:48:03;5.43;;;4.93;;
6979;SDS011;3530;52.832;10.680;2023-09-08T10:50:49;6.95;;;4.93;;
6979;SDS011;3530;52.832;10.680;2023-09-08T10:53:34;5.57;;;4.72;;
6979;SDS011;3530;52.832;10.680;2023-09-08T10:56:26;5.20;;;4.70;;
6979;SDS011;3530;52.832;10.680;2023-09-08T10:59:12;5.10;;;4.47;;
6979;SDS011;3530;52.832;10.680;2023-09-08T11:01:58;4.93;;;4.53;;
6979;SDS011;3530;52.832;10.680;2023-09-08T11:04:48;4.95;;;4.47;;
6979;SDS011;3530;52.832;10.680;2023-09-08T11:07:38;5.43;;;4.93;;
6979;SDS011;3530;52.832;10.680;2023-09-08T11:10:25;5.15;;;4.32;;
6979;SDS011;3530;52.832;10.680;2023-09-08T11:13:10;5.00;;;4.60;;
6979;SDS011;3530;52.832;10.680;2023-09-08T11:15:56;5.00;;;4.60;;
6979;SDS011;3530;52.832;10.680;2023-09-08T11:18:42;5.07;;;4.50;;
6979;SDS011;3530;52.832;10.680;2023-09-08T11:21:28;5.10;;;4.60;;
6979;SDS011;3530;52.832;10.680;2023-09-08T11:24:19;6.90;;;4.28;;
6979;SDS011;3530;52.832;10.680;2023-09-08T11:27:05;4.63;;;4.22;;
6979;SDS011;3530;52.832;10.680;2023-09-08T11:29:51;4.38;;;4.07;;
6979;SDS011;3530;52.832;10.680;2023-09-08T11:32:36;5.15;;;4.72;;
6979;SDS011;3530;52.832;10.680;2023-09-08T11:35:23;4.57;;;3.90;;
6979;SDS011;3530;52.832;10.680;2023-09-08T11:38:12;4.93;;;3.60;;
6979;SDS011;3530;52.832;10.680;2023-09-08T11:40:58;4.60;;;4.20;;
6979;SDS011;3530;52.832;10.680;2023-09-08T11:43:43;3.53;;;3.20;;
6979;SDS011;3530;52.832;10.680;2023-09-08T11:46:30;3.97;;;3.58;;
6979;SDS011;3530;52.832;10.680;2023-09-08T11:49:18;3.97;;;3.45;;
6979;SDS011;3530;52.832;10.680;2023-09-08T11:52:04;2.97;;;2.75;;
6979;SDS011;3530;52.832;10.680;2023-09-08T11:54:50;4.38;;;3.55;;
6979;SDS011;3530;52.832;10.680;2023-09-08T11:57:37;4.05;;;3.67;;
6979;SDS011;3530;52.832;10.680;2023-09-08T12:00:23;3.65;;;3.35;;
6979;SDS011;3530;52.832;10.680;2023-09-08T12:03:11;3.25;;;3.05;;
6979;SDS011;3530;52.832;10.680;2023-09-08T12:05:58;3.72;;;3.17;;
6979;SDS011;3530;52.832;10.680;2023-09-08T12:08:45;3.20;;;3.00;;
6979;SDS011;3530;52.832;10.680;2023-09-08T12:11:32;3.40;;;3.10;;
6979;SDS011;3530;52.832;10.680;2023-09-08T12:14:20;6.35;;;3.10;;
6979;SDS011;3530;52.832;10.680;2023-09-08T12:17:06;3.25;;;3.03;;
6979;SDS011;3530;52.832;10.680;2023-09-08T12:19:55;3.75;;;3.42;;
6979;SDS011;3530;52.832;10.680;2023-09-08T12:22:50;3.38;;;3.08;;
6979;SDS011;3530;52.832;10.680;2023-09-08T12:25:44;4.30;;;3.08;;
6979;SDS011;3530;52.832;10.680;2023-09-08T12:28:30;4.13;;;3.03;;
6979;SDS011;3530;52.832;10.680;2023-09-08T12:31:17;3.42;;;3.15;;
6979;SDS011;3530;52.832;10.680;2023-09-08T12:34:02;3.67;;;3.10;;
6979;SDS011;3530;52.832;10.680;2023-09-08T12:36:48;3.63;;;3.33;;
6979;SDS011;3530;52.832;10.680;2023-09-08T12:39:34;4.57;;;3.67;;
6979;SDS011;3530;52.832;10.680;2023-09-08T12:42:19;3.88;;;3.58;;
6979;SDS011;3530;52.832;10.680;2023-09-08T12:45:06;2.90;;;2.70;;
6979;SDS011;3530;52.832;10.680;2023-09-08T12:47:52;3.17;;;2.97;;
6979;SDS011;3530;52.832;10.680;2023-09-08T12:50:37;4.35;;;3.28;;
6979;SDS011;3530;52.832;10.680;2023-09-08T12:53:23;5.47;;;3.28;;
6979;SDS011;3530;52.832;10.680;2023-09-08T12:56:09;3.13;;;2.92;;
6979;SDS011;3530;52.832;10.680;2023-09-08T12:58:55;3.90;;;3.60;;
6979;SDS011;3530;52.832;10.680;2023-09-08T13:01:41;3.45;;;3.15;;
6979;SDS011;3530;52.832;10.680;2023-09-08T13:04:26;3.95;;;3.55;;
6979;SDS011;3530;52.832;10.680;2023-09-08T13:07:12;6.95;;;3.70;;
6979;SDS011;3530;52.832;10.680;2023-09-08T13:09:58;4.18;;;3.45;;
6979;SDS011;3530;52.832;10.680;2023-09-08T13:12:44;7.82;;;3.38;;
6979;SDS011;3530;52.832;10.680;2023-09-08T13:15:30;8.32;;;3.65;;
6979;SDS011;3530;52.832;10.680;2023-09-08T13:18:15;14.07;;;3.80;;
6979;SDS011;3530;52.832;10.680;2023-09-08T13:21:01;3.88;;;3.53;;
6979;SDS011;3530;52.832;10.680;2023-09-08T13:23:47;3.50;;;3.20;;
6979;SDS011;3530;52.832;10.680;2023-09-08T13:26:33;4.20;;;3.65;;
6979;SDS011;3530;52.832;10.680;2023-09-08T13:29:19;5.70;;;3.00;;
6979;SDS011;3530;52.832;10.680;2023-09-08T13:32:05;4.03;;;3.65;;
6979;SDS011;3530;52.832;10.680;2023-09-08T13:34:51;3.10;;;2.90;;
6979;SDS011;3530;52.832;10.680;2023-09-08T13:37:37;5.80;;;3.72;;
6979;SDS011;3530;52.832;10.680;2023-09-08T13:40:25;3.10;;;2.80;;
6979;SDS011;3530;52.832;10.680;2023-09-08T13:43:12;7.13;;;3.58;;
6979;SDS011;3530;52.832;10.680;2023-09-08T13:45:57;3.55;;;3.17;;
6979;SDS011;3530;52.832;10.680;2023-09-08T13:48:43;3.75;;;3.45;;
6979;SDS011;3530;52.832;10.680;2023-09-08T13:51:28;3.42;;;3.13;;
6979;SDS011;3530;52.832;10.680;2023-09-08T13:54:14;2.85;;;2.65;;
6979;SDS011;3530;52.832;10.680;2023-09-08T13:57:00;3.53;;;3.08;;
6979;SDS011;3530;52.832;10.680;2023-09-08T13:59:47;3.30;;;3.03;;
6979;SDS011;3530;52.832;10.680;2023-09-08T14:02:33;3.63;;;3.33;;
6979;SDS011;3530;52.832;10.680;2023-09-08T14:05:19;3.67;;;3.35;;
6979;SDS011;3530;52.832;10.680;2023-09-08T14:08:05;3.42;;;3.13;;
6979;SDS011;3530;52.832;10.680;2023-09-08T14:10:50;3.22;;;2.92;;
6979;SDS011;3530;52.832;10.680;2023-09-08T14:13:36;4.88;;;3.13;;
6979;SDS011;3530;52.832;10.680;2023-09-08T14:16:22;3.75;;;3.08;;
6979;SDS011;3530;52.832;10.680;2023-09-08T14:19:07;3.67;;;3.20;;
6979;SDS011;3530;52.832;10.680;2023-09-08T14:21:53;3.35;;;3.08;;
6979;SDS011;3530;52.832;10.680;2023-09-08T14:24:39;5.95;;;3.40;;
6979;SDS011;3530;52.832;10.680;2023-09-08T14:27:24;3.72;;;2.97;;
6979;SDS011;3530;52.832;10.680;2023-09-08T14:30:10;4.68;;;2.72;;
6979;SDS011;3530;52.832;10.680;2023-09-08T14:32:56;2.75;;;2.55;;
6979;SDS011;3530;52.832;10.680;2023-09-08T14:35:42;3.80;;;2.88;;
6979;SDS011;3530;52.832;10.680;2023-09-08T14:38:28;3.28;;;2.97;;
6979;SDS011;3530;52.832;10.680;2023-09-08T14:41:14;3.50;;;3.00;;
6979;SDS011;3530;52.832;10.680;2023-09-08T14:44:00;2.90;;;2.70;;
6979;SDS011;3530;52.832;10.680;2023-09-08T14:46:45;4.20;;;2.78;;
6979;SDS011;3530;52.832;10.680;2023-09-08T14:49:31;4.82;;;2.88;;
6979;SDS011;3530;52.832;10.680;2023-09-08T14:52:17;9.45;;;3.03;;
6979;SDS011;3530;52.832;10.680;2023-09-08T14:55:05;2.42;;;2.22;;
6979;SDS011;3530;52.832;10.680;2023-09-08T14:57:51;4.25;;;2.70;;
6979;SDS011;3530;52.832;10.680;2023-09-08T15:00:37;4.53;;;2.92;;
6979;SDS011;3530;52.832;10.680;2023-09-08T15:03:23;2.80;;;2.60;;
6979;SDS011;3530;52.832;10.680;2023-09-08T15:06:08;3.22;;;3.03;;
6979;SDS011;3530;52.832;10.680;2023-09-08T15:08:54;3.10;;;2.83;;
6979;SDS011;3530;52.832;10.680;2023-09-08T15:11:40;2.72;;;2.53;;
6979;SDS011;3530;52.832;10.680;2023-09-08T15:14:25;3.63;;;3.33;;
6979;SDS011;3530;52.832;10.680;2023-09-08T15:17:12;3.25;;;2.97;;
6979;SDS011;3530;52.832;10.680;2023-09-08T15:20:02;3.05;;;2.85;;
6979;SDS011;3530;52.832;10.680;2023-09-08T15:22:48;4.70;;;3.00;;
6979;SDS011;3530;52.832;10.680;2023-09-08T15:25:34;6.82;;;3.50;;
6979;SDS011;3530;52.832;10.680;2023-09-08T15:28:19;7.90;;;3.78;;
6979;SDS011;3530;52.832;10.680;2023-09-08T15:31:05;2.97;;;2.60;;
6979;SDS011;3530;52.832;10.680;2023-09-08T15:33:51;8.75;;;2.95;;
6979;SDS011;3530;52.832;10.680;2023-09-08T15:36:37;8.23;;;3.20;;
6979;SDS011;3530;52.832;10.680;2023-09-08T15:39:23;3.05;;;2.70;;
6979;SDS011;3530;52.832;10.680;2023-09-08T15:42:08;2.40;;;2.25;;
6979;SDS011;3530;52.832;10.680;2023-09-08T15:44:54;2.75;;;2.45;;
6979;SDS011;3530;52.832;10.680;2023-09-08T15:47:40;3.85;;;2.72;;
6979;SDS011;3530;52.832;10.680;2023-09-08T15:50:26;3.45;;;2.83;;
6979;SDS011;3530;52.832;10.680;2023-09-08T15:53:12;4.32;;;2.70;;
6979;SDS011;3530;52.832;10.680;2023-09-08T15:55:58;3.22;;;2.95;;
6979;SDS011;3530;52.832;10.680;2023-09-08T15:58:43;3.05;;;2.75;;
6979;SDS011;3530;52.832;10.680;2023-09-08T16:01:29;7.07;;;2.50;;
6979;SDS011;3530;52.832;10.680;2023-09-08T16:04:15;4.05;;;2.72;;
6979;SDS011;3530;52.832;10.680;2023-09-08T16:07:01;3.00;;;2.80;;
6979;SDS011;3530;52.832;10.680;2023-09-08T16:09:46;3.03;;;2.85;;
6979;SDS011;3530;52.832;10.680;2023-09-08T16:12:32;3.08;;;2.85;;
6979;SDS011;3530;52.832;10.680;2023-09-08T16:15:18;4.18;;;2.83;;
6979;SDS011;3530;52.832;10.680;2023-09-08T16:18:03;4.20;;;3.05;;
6979;SDS011;3530;52.832;10.680;2023-09-08T16:20:50;3.15;;;2.85;;
6979;SDS011;3530;52.832;10.680;2023-09-08T16:23:36;3.42;;;3.08;;
6979;SDS011;3530;52.832;10.680;2023-09-08T16:26:21;3.30;;;3.03;;
6979;SDS011;3530;52.832;10.680;2023-09-08T16:29:07;3.22;;;2.92;;
6979;SDS011;3530;52.832;10.680;2023-09-08T16:31:53;3.03;;;2.75;;
6979;SDS011;3530;52.832;10.680;2023-09-08T16:34:38;8.35;;;3.17;;
6979;SDS011;3530;52.832;10.680;2023-09-08T16:37:24;6.22;;;3.17;;
6979;SDS011;3530;52.832;10.680;2023-09-08T16:40:10;3.03;;;2.80;;
6979;SDS011;3530;52.832;10.680;2023-09-08T16:42:55;6.50;;;3.13;;
6979;SDS011;3530;52.832;10.680;2023-09-08T16:45:41;3.65;;;3.22;;
6979;SDS011;3530;52.832;10.680;2023-09-08T16:48:27;4.60;;;3.20;;
6979;SDS011;3530;52.832;10.680;2023-09-08T16:51:12;11.60;;;3.70;;
6979;SDS011;3530;52.832;10.680;2023-09-08T16:53:58;5.28;;;3.35;;
6979;SDS011;3530;52.832;10.680;2023-09-08T16:56:44;3.50;;;3.20;;
6979;SDS011;3530;52.832;10.680;2023-09-08T16:59:29;3.20;;;2.88;;
6979;SDS011;3530;52.832;10.680;2023-09-08T17:02:15;4.40;;;3.20;;